createdAt,value
2019-03-06T00:00:24.424Z,4.75
2019-03-06T00:01:24.432Z,4.69
2019-03-06T00:02:24.417Z,4.77
2019-03-06T00:03:24.389Z,4.77
2019-03-06T00:04:24.376Z,4.72
2019-03-06T00:05:24.376Z,4.69
2019-03-06T00:06:24.350Z,4.69
2019-03-06T00:07:24.380Z,4.63
2019-03-06T00:08:24.325Z,4.66
2019-03-06T00:09:24.330Z,4.58
2019-03-06T00:10:24.309Z,4.63
2019-03-06T00:11:24.298Z,4.62
2019-03-06T00:12:24.285Z,4.58
2019-03-06T00:13:24.299Z,4.60
2019-03-06T00:14:24.264Z,4.65
2019-03-06T00:15:24.250Z,4.62
2019-03-06T00:16:24.250Z,4.59
2019-03-06T00:17:24.231Z,4.73
2019-03-06T00:18:24.242Z,4.55
2019-03-06T00:19:24.217Z,4.60
2019-03-06T00:20:24.194Z,4.63
2019-03-06T00:21:24.188Z,4.65
2019-03-06T00:22:24.189Z,4.66
2019-03-06T00:23:24.203Z,4.67
2019-03-06T00:24:24.182Z,4.67
2019-03-06T00:25:24.142Z,4.58
2019-03-06T00:26:24.148Z,4.59
2019-03-06T00:27:24.122Z,4.58
2019-03-06T00:28:24.113Z,4.60
2019-03-06T00:29:24.121Z,4.50
2019-03-06T00:30:24.097Z,4.51
2019-03-06T00:31:24.070Z,4.47
2019-03-06T00:32:24.092Z,4.48
2019-03-06T00:33:24.047Z,4.51
2019-03-06T00:34:24.107Z,4.47
2019-03-06T00:35:24.033Z,4.55
2019-03-06T00:36:24.033Z,4.59
2019-03-06T00:37:24.014Z,4.55
2019-03-06T00:38:23.999Z,4.52
2019-03-06T00:39:23.987Z,4.55
2019-03-06T00:40:24.001Z,4.59
2019-03-06T00:41:23.961Z,4.54
2019-03-06T00:42:23.953Z,4.47
2019-03-06T00:43:23.968Z,4.54
2019-03-06T00:44:23.925Z,4.52
2019-03-06T00:45:23.947Z,4.50
2019-03-06T00:46:23.909Z,4.51
2019-03-06T00:47:23.919Z,4.54
2019-03-06T00:48:23.880Z,4.52
2019-03-06T00:49:23.920Z,4.52
2019-03-06T00:50:23.871Z,4.59
2019-03-06T00:51:23.854Z,4.69
2019-03-06T00:52:23.837Z,4.80
2019-03-06T00:53:23.830Z,4.67
2019-03-06T00:54:23.831Z,4.66
2019-03-06T00:55:23.841Z,4.70
2019-03-06T00:56:23.801Z,4.77
2019-03-06T00:57:23.785Z,4.69
2019-03-06T00:58:25.099Z,4.72
2019-03-06T00:59:23.767Z,4.69
2019-03-06T01:00:23.765Z,4.78
2019-03-06T01:01:23.762Z,4.75
2019-03-06T01:02:23.743Z,4.73
2019-03-06T01:03:23.714Z,4.67
2019-03-06T01:04:23.708Z,4.75
2019-03-06T01:05:23.718Z,4.65
2019-03-06T01:06:23.726Z,4.73
2019-03-06T01:07:23.674Z,4.78
2019-03-06T01:08:23.660Z,4.67
2019-03-06T01:09:23.657Z,4.60
2019-03-06T01:10:23.636Z,4.63
2019-03-06T01:11:23.680Z,4.62
2019-03-06T01:12:23.617Z,4.65
2019-03-06T01:13:23.625Z,4.70
2019-03-06T01:14:23.597Z,4.66
2019-03-06T01:15:23.594Z,4.73
2019-03-06T01:16:23.596Z,4.70
2019-03-06T01:17:23.587Z,4.77
2019-03-06T01:18:23.554Z,4.80
2019-03-06T01:19:23.542Z,4.80
2019-03-06T01:20:23.544Z,4.72
2019-03-06T01:21:23.520Z,4.60
2019-03-06T01:22:23.577Z,4.65
2019-03-06T01:23:23.513Z,4.67
2019-03-06T01:24:23.488Z,4.62
2019-03-06T01:25:23.475Z,4.63
2019-03-06T01:26:23.461Z,4.58
2019-03-06T01:27:23.451Z,4.63
2019-03-06T01:28:23.466Z,4.59
2019-03-06T01:29:23.443Z,4.58
2019-03-06T01:30:23.419Z,4.55
2019-03-06T01:31:23.403Z,4.59
2019-03-06T01:32:23.406Z,4.50
2019-03-06T01:33:23.384Z,4.48
2019-03-06T01:34:23.400Z,4.50
2019-03-06T01:35:23.360Z,4.54
2019-03-06T01:36:23.350Z,4.50
2019-03-06T01:37:23.365Z,4.41
2019-03-06T01:38:23.330Z,4.40
2019-03-06T01:39:23.372Z,4.44
2019-03-06T01:40:23.304Z,4.50
2019-03-06T01:41:23.294Z,4.42
2019-03-06T01:42:23.286Z,4.48
2019-03-06T01:43:23.276Z,4.47
2019-03-06T01:44:23.270Z,4.44
2019-03-06T01:45:23.279Z,4.47
2019-03-06T01:46:23.263Z,4.29
2019-03-06T01:47:23.226Z,4.27
2019-03-06T01:48:23.232Z,4.23
2019-03-06T01:49:23.256Z,4.41
2019-03-06T01:50:23.201Z,4.34
2019-03-06T01:51:23.198Z,4.36
2019-03-06T01:52:23.174Z,4.32
2019-03-06T01:53:23.195Z,4.26
2019-03-06T01:54:23.622Z,4.33
2019-03-06T01:55:23.138Z,4.32
2019-03-06T01:56:23.134Z,4.33
2019-03-06T01:57:23.128Z,4.30
2019-03-06T01:58:23.109Z,4.44
2019-03-06T01:59:23.102Z,4.36
2019-03-06T02:00:23.112Z,4.32
2019-03-06T02:01:23.077Z,4.36
2019-03-06T02:02:23.074Z,4.40
2019-03-06T02:03:23.106Z,4.33
2019-03-06T02:04:23.039Z,4.36
2019-03-06T02:05:23.060Z,4.40
2019-03-06T02:06:23.025Z,4.27
2019-03-06T02:07:23.015Z,4.30
2019-03-06T02:08:23.020Z,4.32
2019-03-06T02:09:22.984Z,4.29
2019-03-06T02:10:23.005Z,4.22
2019-03-06T02:11:22.967Z,4.32
2019-03-06T02:12:22.969Z,4.33
2019-03-06T02:13:22.966Z,4.32
2019-03-06T02:14:22.935Z,4.33
2019-03-06T02:15:22.918Z,4.20
2019-03-06T02:16:22.908Z,4.32
2019-03-06T02:17:22.895Z,4.32
2019-03-06T02:18:22.953Z,4.30
2019-03-06T02:19:22.897Z,4.22
2019-03-06T02:20:22.862Z,4.30
2019-03-06T02:21:22.858Z,4.32
2019-03-06T02:22:22.857Z,4.26
2019-03-06T02:23:22.832Z,4.23
2019-03-06T02:24:22.863Z,4.27
2019-03-06T02:25:22.816Z,4.30
2019-03-06T02:26:22.798Z,4.33
2019-03-06T02:27:22.784Z,4.16
2019-03-06T02:28:22.811Z,4.26
2019-03-06T02:29:22.769Z,4.32
2019-03-06T02:30:22.758Z,4.33
2019-03-06T02:31:22.747Z,4.32
2019-03-06T02:32:22.730Z,4.27
2019-03-06T02:33:22.803Z,4.27
2019-03-06T02:34:22.710Z,4.24
2019-03-06T02:35:22.697Z,4.33
2019-03-06T02:36:22.687Z,4.34
2019-03-06T02:37:22.687Z,4.23
2019-03-06T02:38:22.681Z,4.29
2019-03-06T02:39:22.708Z,4.22
2019-03-06T02:40:22.641Z,4.24
2019-03-06T02:41:22.636Z,4.16
2019-03-06T02:42:22.656Z,4.20
2019-03-06T02:43:22.619Z,4.37
2019-03-06T02:44:22.617Z,4.33
2019-03-06T02:45:22.614Z,4.37
2019-03-06T02:46:22.581Z,4.40
2019-03-06T02:47:22.570Z,4.33
2019-03-06T02:48:22.567Z,4.33
2019-03-06T02:49:22.570Z,4.33
2019-03-06T02:50:22.537Z,4.33
2019-03-06T02:51:22.540Z,4.33
2019-03-06T02:52:22.510Z,4.27
2019-03-06T02:53:22.520Z,4.24
2019-03-06T02:54:22.526Z,4.23
2019-03-06T02:55:22.537Z,4.26
2019-03-06T02:56:22.481Z,4.23
2019-03-06T02:57:22.487Z,4.30
2019-03-06T02:58:22.454Z,4.16
2019-03-06T02:59:22.436Z,4.32
2019-03-06T03:00:22.429Z,4.27
2019-03-06T03:01:22.443Z,4.30
2019-03-06T03:02:22.404Z,4.32
2019-03-06T03:03:22.389Z,4.34
2019-03-06T03:04:22.384Z,4.22
2019-03-06T03:05:22.369Z,4.27
2019-03-06T03:06:22.381Z,4.32
2019-03-06T03:07:22.348Z,4.20
2019-03-06T03:08:22.357Z,4.18
2019-03-06T03:09:22.398Z,4.26
2019-03-06T03:10:22.317Z,4.27
2019-03-06T03:11:22.342Z,4.23
2019-03-06T03:12:22.315Z,4.20
2019-03-06T03:13:22.303Z,4.23
2019-03-06T03:14:22.322Z,4.16
2019-03-06T03:15:22.263Z,4.18
2019-03-06T03:16:22.261Z,4.18
2019-03-06T03:17:22.272Z,4.15
2019-03-06T03:18:22.274Z,4.20
2019-03-06T03:19:22.242Z,4.12
2019-03-06T03:20:22.289Z,4.05
2019-03-06T03:21:22.196Z,4.11
2019-03-06T03:22:22.187Z,4.08
2019-03-06T03:23:22.183Z,4.05
2019-03-06T03:24:22.174Z,4.06
2019-03-06T03:25:22.193Z,4.05
2019-03-06T03:26:22.144Z,4.00
2019-03-06T03:27:22.152Z,4.00
2019-03-06T03:28:22.117Z,4.00
2019-03-06T03:29:22.118Z,3.98
2019-03-06T03:30:22.126Z,3.96
2019-03-06T03:31:22.085Z,3.97
2019-03-06T03:32:22.074Z,3.90
2019-03-06T03:33:22.063Z,3.88
2019-03-06T03:34:22.061Z,3.83
2019-03-06T03:35:22.105Z,4.02
2019-03-06T03:36:22.032Z,4.02
2019-03-06T03:37:22.021Z,4.00
2019-03-06T03:38:22.014Z,4.02
2019-03-06T03:39:22.001Z,4.05
2019-03-06T03:40:21.998Z,4.12
2019-03-06T03:41:21.995Z,4.06
2019-03-06T03:42:21.970Z,4.06
2019-03-06T03:43:21.950Z,4.12
2019-03-06T03:44:21.945Z,4.05
2019-03-06T03:45:21.927Z,4.09
2019-03-06T03:46:21.968Z,4.11
2019-03-06T03:47:21.912Z,4.15
2019-03-06T03:48:21.903Z,4.16
2019-03-06T03:49:21.884Z,4.11
2019-03-06T03:50:21.873Z,4.11
2019-03-06T03:51:21.866Z,4.00
2019-03-06T03:52:21.875Z,4.05
2019-03-06T03:53:21.845Z,3.94
2019-03-06T03:54:21.891Z,4.04
2019-03-06T03:55:21.843Z,3.96
2019-03-06T03:56:21.807Z,3.88
2019-03-06T03:57:21.848Z,3.93
2019-03-06T03:58:21.789Z,3.80
2019-03-06T03:59:21.780Z,3.87
2019-03-06T04:00:21.765Z,3.88
2019-03-06T04:01:21.759Z,3.88
2019-03-06T04:02:21.806Z,3.86
2019-03-06T04:03:21.736Z,3.94
2019-03-06T04:04:21.730Z,3.93
2019-03-06T04:05:21.714Z,3.98
2019-03-06T04:06:21.721Z,3.94
2019-03-06T04:07:21.698Z,3.88
2019-03-06T04:08:21.736Z,4.09
2019-03-06T04:09:21.677Z,4.05
2019-03-06T04:10:21.658Z,4.00
2019-03-06T04:11:21.647Z,3.97
2019-03-06T04:12:21.659Z,4.05
2019-03-06T04:13:21.628Z,4.05
2019-03-06T04:14:21.679Z,4.06
2019-03-06T04:15:21.635Z,4.02
2019-03-06T04:16:21.588Z,4.14
2019-03-06T04:17:21.584Z,4.08
2019-03-06T04:18:21.571Z,4.20
2019-03-06T04:19:21.555Z,4.11
2019-03-06T04:20:21.576Z,4.06
2019-03-06T04:21:21.544Z,4.11
2019-03-06T04:22:21.548Z,4.06
2019-03-06T04:23:21.520Z,4.02
2019-03-06T04:24:21.565Z,4.12
2019-03-06T04:25:21.495Z,4.02
2019-03-06T04:26:21.511Z,4.12
2019-03-06T04:27:21.487Z,4.14
2019-03-06T04:28:21.463Z,4.04
2019-03-06T04:29:21.479Z,4.12
2019-03-06T04:30:21.452Z,4.20
2019-03-06T04:31:21.435Z,4.14
2019-03-06T04:32:21.418Z,4.02
2019-03-06T04:33:21.438Z,4.11
2019-03-06T04:34:21.465Z,3.98
2019-03-06T04:35:21.412Z,4.02
2019-03-06T04:36:21.373Z,4.04
2019-03-06T04:37:21.386Z,4.08
2019-03-06T04:38:21.351Z,4.06
2019-03-06T04:39:21.350Z,4.02
2019-03-06T04:40:21.368Z,4.12
2019-03-06T04:41:21.319Z,4.09
2019-03-06T04:42:21.319Z,4.18
2019-03-06T04:43:21.311Z,4.14
2019-03-06T04:44:21.289Z,4.23
2019-03-06T04:45:21.297Z,4.23
2019-03-06T04:46:21.267Z,4.15
2019-03-06T04:47:21.252Z,4.23
2019-03-06T04:48:21.243Z,4.12
2019-03-06T04:49:21.235Z,4.08
2019-03-06T04:50:21.243Z,4.09
2019-03-06T04:51:21.219Z,4.00
2019-03-06T04:52:21.229Z,4.04
2019-03-06T04:53:21.198Z,3.98
2019-03-06T04:54:21.172Z,4.02
2019-03-06T04:55:21.192Z,3.90
2019-03-06T04:56:21.170Z,3.87
2019-03-06T04:57:21.144Z,3.87
2019-03-06T04:58:21.148Z,3.87
2019-03-06T04:59:21.124Z,3.94
2019-03-06T05:00:21.138Z,3.88
2019-03-06T05:01:21.130Z,4.00
2019-03-06T05:02:21.108Z,3.97
2019-03-06T05:03:21.073Z,3.94
2019-03-06T05:04:21.082Z,3.98
2019-03-06T05:05:21.061Z,3.98
2019-03-06T05:06:21.080Z,3.93
2019-03-06T05:07:21.042Z,3.94
2019-03-06T05:08:21.030Z,3.96
2019-03-06T05:09:21.007Z,4.04
2019-03-06T05:10:21.003Z,4.04
2019-03-06T05:11:21.016Z,4.02
2019-03-06T05:12:20.974Z,3.97
2019-03-06T05:13:20.965Z,3.98
2019-03-06T05:14:20.961Z,3.88
2019-03-06T05:15:20.948Z,3.88
2019-03-06T05:16:21.043Z,3.66
2019-03-06T05:17:20.920Z,3.69
2019-03-06T05:18:20.927Z,3.57
2019-03-06T05:19:20.897Z,3.57
2019-03-06T05:20:20.907Z,3.51
2019-03-06T05:21:20.876Z,3.50
2019-03-06T05:22:20.901Z,3.45
2019-03-06T05:23:20.872Z,3.39
2019-03-06T05:24:20.853Z,3.40
2019-03-06T05:25:20.837Z,3.47
2019-03-06T05:26:20.876Z,3.55
2019-03-06T05:27:20.838Z,3.52
2019-03-06T05:28:20.850Z,3.55
2019-03-06T05:29:20.794Z,3.55
2019-03-06T05:30:20.782Z,3.51
2019-03-06T05:31:20.781Z,3.48
2019-03-06T05:32:20.812Z,3.35
2019-03-06T05:33:20.767Z,3.31
2019-03-06T05:34:20.740Z,3.31
2019-03-06T05:35:20.729Z,3.35
2019-03-06T05:36:20.710Z,3.29
2019-03-06T05:37:20.701Z,3.23
2019-03-06T05:38:20.719Z,3.14
2019-03-06T05:39:20.710Z,3.24
2019-03-06T05:40:20.670Z,3.21
2019-03-06T05:41:20.665Z,3.31
2019-03-06T05:42:20.672Z,3.21
2019-03-06T05:43:20.665Z,3.20
2019-03-06T05:44:20.624Z,3.10
2019-03-06T05:45:20.616Z,3.10
2019-03-06T05:46:20.598Z,3.15
2019-03-06T05:47:20.594Z,3.17
2019-03-06T05:48:20.608Z,3.15
2019-03-06T05:49:20.565Z,3.32
2019-03-06T05:50:20.565Z,3.29
2019-03-06T05:51:20.550Z,3.29
2019-03-06T05:52:20.536Z,3.36
2019-03-06T05:53:20.544Z,3.28
2019-03-06T05:54:20.559Z,3.31
2019-03-06T05:55:20.498Z,3.32
2019-03-06T05:56:20.542Z,3.43
2019-03-06T05:57:20.494Z,3.28
2019-03-06T05:58:20.471Z,3.29
2019-03-06T05:59:20.458Z,3.32
2019-03-06T06:00:20.448Z,3.28
2019-03-06T06:01:20.436Z,3.32
2019-03-06T06:02:20.458Z,3.29
2019-03-06T06:03:20.479Z,3.35
2019-03-06T06:04:20.413Z,3.35
2019-03-06T06:05:20.396Z,3.45
2019-03-06T06:06:20.376Z,3.52
2019-03-06T06:07:20.367Z,3.55
2019-03-06T06:08:20.360Z,3.51
2019-03-06T06:09:20.395Z,3.51
2019-03-06T06:10:20.335Z,3.62
2019-03-06T06:11:20.327Z,3.70
2019-03-06T06:12:20.323Z,3.70
2019-03-06T06:13:20.325Z,3.68
2019-03-06T06:14:20.292Z,3.69
2019-03-06T06:15:20.315Z,3.75
2019-03-06T06:16:20.264Z,3.72
2019-03-06T06:17:20.277Z,3.86
2019-03-06T06:18:20.251Z,3.76
2019-03-06T06:19:20.260Z,3.73
2019-03-06T06:20:20.224Z,3.80
2019-03-06T06:21:20.240Z,3.79
2019-03-06T06:22:20.250Z,3.75
2019-03-06T06:23:20.195Z,3.79
2019-03-06T06:24:20.185Z,3.68
2019-03-06T06:25:20.204Z,3.66
2019-03-06T06:26:20.160Z,3.62
2019-03-06T06:27:20.171Z,3.60
2019-03-06T06:28:20.161Z,3.57
2019-03-06T06:29:20.128Z,3.50
2019-03-06T06:30:22.056Z,3.51
2019-03-06T06:31:20.132Z,3.51
2019-03-06T06:32:20.095Z,3.58
2019-03-06T06:33:20.107Z,3.58
2019-03-06T06:34:20.078Z,3.55
2019-03-06T06:35:20.060Z,3.57
2019-03-06T06:36:20.044Z,3.54
2019-03-06T06:37:20.066Z,3.58
2019-03-06T06:38:20.061Z,3.58
2019-03-06T06:39:20.013Z,3.70
2019-03-06T06:40:20.005Z,3.66
2019-03-06T06:41:19.996Z,3.60
2019-03-06T06:42:19.980Z,3.73
2019-03-06T06:43:20.007Z,3.75
2019-03-06T06:44:19.956Z,3.79
2019-03-06T06:45:19.967Z,3.78
2019-03-06T06:46:19.941Z,3.76
2019-03-06T06:47:19.925Z,3.80
2019-03-06T06:48:19.980Z,3.80
2019-03-06T06:49:19.906Z,3.84
2019-03-06T06:50:19.895Z,3.86
2019-03-06T06:51:19.906Z,3.79
2019-03-06T06:52:19.868Z,3.78
2019-03-06T06:53:19.928Z,3.75
2019-03-06T06:54:19.904Z,3.76
2019-03-06T06:55:19.843Z,3.69
2019-03-06T06:56:19.831Z,3.76
2019-03-06T06:57:19.815Z,3.76
2019-03-06T06:58:19.803Z,3.75
2019-03-06T06:59:19.821Z,3.83
2019-03-06T07:00:19.785Z,3.76
2019-03-06T07:01:19.808Z,3.83
2019-03-06T07:02:19.760Z,3.83
2019-03-06T07:03:19.774Z,3.79
2019-03-06T07:04:19.799Z,3.78
2019-03-06T07:05:19.731Z,3.83
2019-03-06T07:06:19.745Z,3.84
2019-03-06T07:07:19.710Z,3.87
2019-03-06T07:08:19.724Z,3.91
2019-03-06T07:09:19.690Z,3.90
2019-03-06T07:10:19.710Z,4.02
2019-03-06T07:11:19.673Z,3.86
2019-03-06T07:12:19.676Z,3.91
2019-03-06T07:13:19.639Z,3.97
2019-03-06T07:14:19.651Z,4.02
2019-03-06T07:15:19.653Z,4.05
2019-03-06T07:16:19.613Z,3.97
2019-03-06T07:17:19.603Z,3.96
2019-03-06T07:18:19.584Z,3.94
2019-03-06T07:19:19.582Z,3.87
2019-03-06T07:20:19.592Z,3.83
2019-03-06T07:21:19.555Z,3.87
2019-03-06T07:22:19.543Z,3.79
2019-03-06T07:23:19.560Z,3.83
2019-03-06T07:24:19.550Z,3.78
2019-03-06T07:25:19.529Z,3.80
2019-03-06T07:26:19.526Z,3.88
2019-03-06T07:27:19.487Z,3.79
2019-03-06T07:28:19.541Z,3.88
2019-03-06T07:29:19.463Z,3.88
2019-03-06T07:30:19.453Z,3.97
2019-03-06T07:31:19.451Z,4.06
2019-03-06T07:32:19.456Z,4.14
2019-03-06T07:33:19.425Z,4.14
2019-03-06T07:34:19.481Z,4.12
2019-03-06T07:35:19.397Z,4.24
2019-03-06T07:36:19.521Z,4.36
2019-03-06T07:37:28.133Z,4.33
2019-03-06T07:38:20.390Z,4.34
2019-03-06T07:39:19.353Z,4.40
2019-03-06T07:40:19.373Z,4.40
2019-03-06T07:41:19.330Z,4.48
2019-03-06T07:42:19.345Z,4.44
2019-03-06T07:43:19.317Z,4.45
2019-03-06T07:44:19.319Z,4.40
2019-03-06T07:45:19.292Z,4.47
2019-03-06T07:46:19.281Z,4.44
2019-03-06T07:47:19.302Z,4.37
2019-03-06T07:48:19.265Z,4.37
2019-03-06T07:49:19.359Z,4.41
2019-03-06T07:50:19.253Z,4.41
2019-03-06T07:51:19.226Z,4.45
2019-03-06T07:52:19.265Z,4.48
2019-03-06T07:53:19.216Z,4.50
2019-03-06T07:54:19.192Z,4.47
2019-03-06T07:55:19.186Z,4.55
2019-03-06T07:56:19.167Z,4.59
2019-03-06T07:57:19.235Z,4.66
2019-03-06T07:58:19.181Z,4.70
2019-03-06T07:59:19.199Z,4.75
2019-03-06T08:00:19.128Z,4.75
2019-03-06T08:01:19.110Z,4.70
2019-03-06T08:02:19.098Z,4.75
2019-03-06T08:03:19.098Z,4.77
2019-03-06T08:04:19.078Z,4.91
2019-03-06T08:05:19.098Z,4.85
2019-03-06T08:06:19.065Z,4.91
2019-03-06T08:07:19.060Z,4.85
2019-03-06T08:08:19.033Z,4.96
2019-03-06T08:09:19.050Z,4.92
2019-03-06T08:10:19.046Z,4.97
2019-03-06T08:11:18.998Z,5.06
2019-03-06T08:12:19.012Z,5.10
2019-03-06T08:13:18.976Z,5.13
2019-03-06T08:14:22.283Z,5.22
2019-03-06T08:15:18.990Z,5.25
2019-03-06T08:16:18.946Z,5.20
2019-03-06T08:17:18.935Z,5.36
2019-03-06T08:18:18.936Z,5.38
2019-03-06T08:19:18.913Z,5.35
2019-03-06T08:20:18.966Z,5.46
2019-03-06T08:21:18.969Z,5.39
2019-03-06T08:22:18.881Z,5.45
2019-03-06T08:23:18.874Z,5.49
2019-03-06T08:24:18.860Z,5.53
2019-03-06T08:25:18.850Z,5.51
2019-03-06T08:26:18.863Z,5.49
2019-03-06T08:27:18.852Z,5.40
2019-03-06T08:28:18.819Z,5.56
2019-03-06T08:29:18.801Z,5.54
2019-03-06T08:30:18.797Z,5.51
2019-03-06T08:31:18.807Z,5.49
2019-03-06T08:32:18.774Z,5.49
2019-03-06T08:33:18.790Z,5.61
2019-03-06T08:34:18.765Z,5.67
2019-03-06T08:35:18.742Z,5.76
2019-03-06T08:36:18.742Z,5.78
2019-03-06T08:37:18.735Z,5.90
2019-03-06T08:38:18.701Z,5.83
2019-03-06T08:39:18.692Z,5.97
2019-03-06T08:40:18.676Z,6.00
2019-03-06T08:41:18.672Z,5.99
2019-03-06T08:42:18.712Z,6.11
2019-03-06T08:43:18.645Z,6.15
2019-03-06T08:44:18.639Z,6.14
2019-03-06T08:45:18.634Z,6.22
2019-03-06T08:46:18.623Z,6.33
2019-03-06T08:47:18.610Z,6.28
2019-03-06T08:48:18.641Z,6.30
2019-03-06T08:49:18.590Z,6.37
2019-03-06T08:50:18.571Z,6.49
2019-03-06T08:51:18.563Z,6.58
2019-03-06T08:52:18.546Z,6.52
2019-03-06T08:53:18.541Z,6.62
2019-03-06T08:54:18.555Z,6.80
2019-03-06T08:55:18.521Z,6.85
2019-03-06T08:56:18.510Z,6.88
2019-03-06T08:57:18.497Z,6.94
2019-03-06T08:58:18.480Z,6.89
2019-03-06T08:59:18.780Z,7.03
2019-03-06T09:00:18.463Z,7.09
2019-03-06T09:01:18.450Z,7.03
2019-03-06T09:02:18.444Z,6.98
2019-03-06T09:03:18.426Z,6.95
2019-03-06T09:04:18.416Z,7.06
2019-03-06T09:05:18.425Z,7.06
2019-03-06T09:06:18.409Z,7.10
2019-03-06T09:07:18.384Z,7.20
2019-03-06T09:08:18.371Z,7.25
2019-03-06T09:09:18.408Z,7.35
2019-03-06T09:10:18.360Z,7.34
2019-03-06T09:11:18.336Z,7.31
2019-03-06T09:12:18.326Z,7.39
2019-03-06T09:13:18.319Z,7.40
2019-03-06T09:14:18.304Z,7.40
2019-03-06T09:15:18.321Z,7.34
2019-03-06T09:16:18.280Z,7.45
2019-03-06T09:17:18.338Z,7.43
2019-03-06T09:18:18.261Z,7.45
2019-03-06T09:19:18.261Z,7.52
2019-03-06T09:20:18.244Z,7.53
2019-03-06T09:21:18.224Z,7.52
2019-03-06T09:22:18.216Z,7.69
2019-03-06T09:23:23.067Z,7.60
2019-03-06T09:24:19.203Z,7.71
2019-03-06T09:25:18.203Z,7.80
2019-03-06T09:26:18.171Z,7.72
2019-03-06T09:27:18.194Z,7.82
2019-03-06T09:28:18.149Z,7.89
2019-03-06T09:29:18.148Z,7.83
2019-03-06T09:30:19.639Z,7.97
2019-03-06T09:31:18.127Z,7.93
2019-03-06T09:32:18.131Z,8.07
2019-03-06T09:33:18.119Z,8.05
2019-03-06T09:34:18.082Z,8.04
2019-03-06T09:35:18.117Z,8.10
2019-03-06T09:36:19.100Z,8.15
2019-03-06T09:37:18.050Z,8.05
2019-03-06T09:38:18.032Z,8.11
2019-03-06T09:39:18.022Z,8.10
2019-03-06T09:40:18.018Z,8.15
2019-03-06T09:41:18.030Z,8.22
2019-03-06T09:42:18.589Z,8.28
2019-03-06T09:43:18.008Z,8.22
2019-03-06T09:44:17.978Z,8.36
2019-03-06T09:45:17.964Z,8.22
2019-03-06T09:46:17.973Z,8.41
2019-03-06T09:47:17.943Z,8.41
2019-03-06T09:48:17.928Z,8.47
2019-03-06T09:49:17.931Z,8.40
2019-03-06T09:50:17.907Z,8.41
2019-03-06T09:51:18.021Z,8.59
2019-03-06T09:52:17.886Z,8.59
2019-03-06T09:53:17.866Z,8.61
2019-03-06T09:54:17.863Z,8.66
2019-03-06T09:55:17.844Z,8.70
2019-03-06T09:56:17.863Z,8.70
2019-03-06T09:57:17.866Z,8.77
2019-03-06T09:58:17.851Z,8.79
2019-03-06T09:59:17.800Z,8.65
2019-03-06T10:00:17.792Z,8.80
2019-03-06T10:01:17.831Z,8.83
2019-03-06T10:02:17.766Z,8.80
2019-03-06T10:03:17.759Z,8.81
2019-03-06T10:04:17.750Z,8.91
2019-03-06T10:05:17.734Z,9.01
2019-03-06T10:06:17.745Z,8.99
2019-03-06T10:07:17.736Z,9.05
2019-03-06T10:08:17.706Z,9.04
2019-03-06T10:09:17.721Z,9.01
2019-03-06T10:10:17.686Z,8.99
2019-03-06T10:11:20.074Z,9.15
2019-03-06T10:12:17.663Z,9.11
2019-03-06T10:13:17.646Z,9.14
2019-03-06T10:14:17.660Z,9.23
2019-03-06T10:15:17.627Z,9.10
2019-03-06T10:16:17.622Z,9.26
2019-03-06T10:17:17.606Z,9.18
2019-03-06T10:18:17.598Z,9.24
2019-03-06T10:19:17.661Z,9.18
2019-03-06T10:20:24.826Z,9.26
2019-03-06T10:21:18.553Z,9.26
2019-03-06T10:22:17.559Z,9.40
2019-03-06T10:23:17.537Z,9.38
2019-03-06T10:24:17.592Z,9.46
2019-03-06T10:25:17.538Z,9.47
2019-03-06T10:26:17.504Z,9.50
2019-03-06T10:27:17.504Z,9.61
2019-03-06T10:28:27.320Z,9.60
2019-03-06T10:29:18.466Z,9.71
2019-03-06T10:30:18.728Z,9.76
2019-03-06T10:31:17.446Z,9.74
2019-03-06T10:32:17.434Z,9.74
2019-03-06T10:33:17.430Z,9.86
2019-03-06T10:34:17.412Z,9.83
2019-03-06T10:35:17.427Z,9.87
2019-03-06T10:36:17.395Z,9.91
2019-03-06T10:37:18.151Z,9.86
2019-03-06T10:38:17.373Z,9.91
2019-03-06T10:39:17.362Z,10.07
2019-03-06T10:40:17.404Z,10.08
2019-03-06T10:41:17.340Z,10.09
2019-03-06T10:42:17.334Z,10.07
2019-03-06T10:43:17.315Z,10.12
2019-03-06T10:44:17.306Z,10.09
2019-03-06T10:45:17.297Z,10.11
2019-03-06T10:46:17.344Z,10.08
2019-03-06T10:47:17.267Z,10.05
2019-03-06T10:48:17.261Z,10.18
2019-03-06T10:49:17.248Z,10.18
2019-03-06T10:50:26.039Z,10.25
2019-03-06T10:51:18.264Z,10.25
2019-03-06T10:52:17.210Z,10.23
2019-03-06T10:53:17.198Z,10.18
2019-03-06T10:54:17.187Z,10.26
2019-03-06T10:55:17.185Z,10.26
2019-03-06T10:56:17.184Z,10.32
2019-03-06T10:57:17.182Z,10.38
2019-03-06T10:58:17.149Z,10.36
2019-03-06T10:59:17.133Z,10.48
2019-03-06T11:00:17.118Z,10.44
2019-03-06T11:01:17.118Z,10.56
2019-03-06T11:02:17.158Z,10.67
2019-03-06T11:03:17.086Z,10.63
2019-03-06T11:04:17.078Z,10.61
2019-03-06T11:05:17.067Z,10.60
2019-03-06T11:06:17.053Z,10.64
2019-03-06T11:07:17.042Z,10.64
2019-03-06T11:08:17.070Z,10.74
2019-03-06T11:09:17.014Z,10.79
2019-03-06T11:10:23.884Z,10.82
2019-03-06T11:11:17.996Z,10.81
2019-03-06T11:12:16.996Z,10.79
2019-03-06T11:13:16.981Z,10.74
2019-03-06T11:14:16.994Z,10.84
2019-03-06T11:15:16.999Z,10.76
2019-03-06T11:16:17.916Z,10.82
2019-03-06T11:17:16.930Z,10.82
2019-03-06T11:18:16.964Z,10.89
2019-03-06T11:19:16.927Z,10.78
2019-03-06T11:20:16.894Z,10.88
2019-03-06T11:21:16.882Z,10.91
2019-03-06T11:22:16.871Z,10.79
2019-03-06T11:23:16.891Z,10.94
2019-03-06T11:24:16.923Z,10.85
2019-03-06T11:25:16.852Z,10.91
2019-03-06T11:26:16.827Z,10.97
2019-03-06T11:27:16.815Z,10.96
2019-03-06T11:28:16.825Z,10.96
2019-03-06T11:29:16.793Z,11.00
2019-03-06T11:30:16.809Z,10.94
2019-03-06T11:31:16.790Z,11.07
2019-03-06T11:32:16.766Z,11.15
2019-03-06T11:33:16.747Z,11.07
2019-03-06T11:34:16.737Z,11.18
2019-03-06T11:35:16.931Z,11.22
2019-03-06T11:36:16.719Z,11.25
2019-03-06T11:37:16.736Z,11.24
2019-03-06T11:38:16.690Z,11.21
2019-03-06T11:39:16.678Z,11.21
2019-03-06T11:40:16.729Z,11.27
2019-03-06T11:41:16.660Z,11.28
2019-03-06T11:42:16.664Z,11.28
2019-03-06T11:43:16.643Z,11.33
2019-03-06T11:44:16.623Z,11.28
2019-03-06T11:45:16.612Z,11.36
2019-03-06T11:46:16.641Z,11.33
2019-03-06T11:47:16.607Z,11.36
2019-03-06T11:48:16.586Z,11.36
2019-03-06T11:49:16.570Z,11.33
2019-03-06T11:50:16.604Z,11.22
2019-03-06T11:51:16.602Z,11.29
2019-03-06T11:52:16.537Z,11.33
2019-03-06T11:53:16.538Z,11.33
2019-03-06T11:54:16.539Z,11.40
2019-03-06T11:55:16.516Z,11.33
2019-03-06T11:56:16.558Z,11.35
2019-03-06T11:57:16.494Z,11.35
2019-03-06T11:58:16.467Z,11.36
2019-03-06T11:59:16.459Z,11.35
2019-03-06T12:00:16.450Z,11.43
2019-03-06T12:01:16.436Z,11.42
2019-03-06T12:02:16.953Z,11.43
2019-03-06T12:03:16.418Z,11.44
2019-03-06T12:04:16.413Z,11.44
2019-03-06T12:05:16.392Z,11.47
2019-03-06T12:06:16.383Z,11.46
2019-03-06T12:07:16.371Z,11.52
2019-03-06T12:08:16.387Z,11.44
2019-03-06T12:09:16.345Z,11.54
2019-03-06T12:10:16.334Z,11.64
2019-03-06T12:11:16.329Z,11.65
2019-03-06T12:12:16.339Z,11.65
2019-03-06T12:13:16.310Z,11.75
2019-03-06T12:14:16.289Z,11.70
2019-03-06T12:15:16.274Z,11.78
2019-03-06T12:16:16.270Z,11.85
2019-03-06T12:17:16.297Z,11.90
2019-03-06T12:18:16.303Z,11.94
2019-03-06T12:19:16.234Z,11.91
2019-03-06T12:20:16.216Z,11.96
2019-03-06T12:21:16.205Z,11.91
2019-03-06T12:22:16.196Z,11.91
2019-03-06T12:23:16.183Z,11.91
2019-03-06T12:24:16.195Z,11.94
2019-03-06T12:25:16.165Z,11.99
2019-03-06T12:26:16.160Z,11.96
2019-03-06T12:27:16.167Z,11.98
2019-03-06T12:28:16.158Z,12.14
2019-03-06T12:29:16.116Z,12.10
2019-03-06T12:30:16.137Z,12.01
2019-03-06T12:31:16.093Z,12.01
2019-03-06T12:32:16.080Z,12.10
2019-03-06T12:33:16.106Z,12.10
2019-03-06T12:34:16.063Z,12.14
2019-03-06T12:35:16.076Z,12.13
2019-03-06T12:36:16.037Z,12.13
2019-03-06T12:37:16.025Z,12.14
2019-03-06T12:38:16.076Z,12.14
2019-03-06T12:39:16.006Z,12.19
2019-03-06T12:40:16.002Z,12.21
2019-03-06T12:41:16.009Z,12.17
2019-03-06T12:42:15.978Z,12.19
2019-03-06T12:43:15.966Z,12.29
2019-03-06T12:44:15.986Z,12.24
2019-03-06T12:45:15.965Z,12.31
2019-03-06T12:46:23.010Z,12.37
2019-03-06T12:47:16.946Z,12.45
2019-03-06T12:48:15.909Z,12.45
2019-03-06T12:49:15.942Z,12.53
2019-03-06T12:50:15.916Z,12.46
2019-03-06T12:51:15.877Z,12.52
2019-03-06T12:52:15.856Z,12.54
2019-03-06T12:53:15.860Z,12.54
2019-03-06T12:54:15.841Z,12.53
2019-03-06T12:55:15.855Z,12.46
2019-03-06T12:56:17.965Z,12.50
2019-03-06T12:57:15.827Z,12.54
2019-03-06T12:58:15.794Z,12.56
2019-03-06T12:59:15.780Z,12.64
2019-03-06T13:00:16.237Z,12.67
2019-03-06T13:01:15.760Z,12.71
2019-03-06T13:02:15.778Z,12.70
2019-03-06T13:03:15.749Z,12.70
2019-03-06T13:04:15.749Z,12.65
2019-03-06T13:05:15.719Z,12.77
2019-03-06T13:06:24.120Z,12.72
2019-03-06T13:07:18.121Z,12.78
2019-03-06T13:08:19.640Z,12.77
2019-03-06T13:09:15.688Z,12.67
2019-03-06T13:10:15.663Z,12.67
2019-03-06T13:11:15.655Z,12.64
2019-03-06T13:12:15.662Z,12.64
2019-03-06T13:13:15.671Z,12.67